createdAt,value
2023-04-17T00:02:01.556Z,9.95
2023-04-17T00:04:30.704Z,9.92
2023-04-17T00:06:59.365Z,10.05
2023-04-17T00:09:26.893Z,10.06
2023-04-17T00:11:55.664Z,9.78
2023-04-17T00:14:23.219Z,9.58
2023-04-17T00:16:52.171Z,9.47
2023-04-17T00:19:19.610Z,9.57
2023-04-17T00:21:46.986Z,9.65
2023-04-17T00:24:14.781Z,9.57
2023-04-17T00:26:42.157Z,9.59
2023-04-17T00:29:11.107Z,9.62
2023-04-17T00:31:38.656Z,9.71
2023-04-17T00:34:06.051Z,9.80
2023-04-17T00:36:33.555Z,9.84
2023-04-17T00:39:01.254Z,9.73
2023-04-17T00:41:28.652Z,9.64
2023-04-17T00:43:56.033Z,9.62
2023-04-17T00:46:24.752Z,9.73
2023-04-17T00:48:52.540Z,9.68
2023-04-17T00:51:20.021Z,9.77
2023-04-17T00:53:47.539Z,9.74
2023-04-17T00:56:15.392Z,9.73
2023-04-17T00:58:42.820Z,9.53
2023-04-17T01:01:10.297Z,9.45
2023-04-17T01:03:39.212Z,9.48
2023-04-17T01:06:07.333Z,9.55
2023-04-17T01:08:42.330Z,9.61
2023-04-17T01:11:10.225Z,9.70
2023-04-17T01:13:45.317Z,9.84
2023-04-17T01:16:12.724Z,9.67
2023-04-17T01:18:41.761Z,9.80
2023-04-17T01:21:09.167Z,9.71
2023-04-17T01:23:45.340Z,9.65
2023-04-17T01:26:17.542Z,9.64
2023-04-17T01:28:45.254Z,9.48
2023-04-17T01:31:16.791Z,9.46
2023-04-17T01:33:44.216Z,9.26
2023-04-17T01:36:11.619Z,9.50
2023-04-17T01:38:39.723Z,9.45
2023-04-17T01:41:10.497Z,9.46
2023-04-17T01:43:45.695Z,9.58
2023-04-17T01:46:13.865Z,9.57
2023-04-17T01:48:41.584Z,9.53
2023-04-17T01:51:09.077Z,9.61
2023-04-17T01:53:37.744Z,9.68
2023-04-17T01:56:05.264Z,9.57
2023-04-17T01:58:32.652Z,9.44
2023-04-17T02:01:01.459Z,9.51
2023-04-17T02:03:29.058Z,9.42
2023-04-17T02:05:56.566Z,9.55
2023-04-17T02:08:24.178Z,9.48
2023-04-17T02:10:51.613Z,9.45
2023-04-17T02:13:19.005Z,9.28
2023-04-17T02:15:46.434Z,9.45
2023-04-17T02:18:15.137Z,9.63
2023-04-17T02:20:42.547Z,9.42
2023-04-17T02:23:09.914Z,9.39
2023-04-17T02:25:37.291Z,9.46
2023-04-17T02:28:05.671Z,9.40
2023-04-17T02:30:33.361Z,9.41
2023-04-17T02:33:00.948Z,9.53
2023-04-17T02:35:32.247Z,9.45
2023-04-17T02:37:59.667Z,9.40
2023-04-17T02:40:27.511Z,9.41
2023-04-17T02:42:54.948Z,9.26
2023-04-17T02:45:22.520Z,9.47
2023-04-17T02:47:50.095Z,9.23
2023-04-17T02:50:17.616Z,9.30
2023-04-17T02:52:46.337Z,9.27
2023-04-17T02:55:13.700Z,9.18
2023-04-17T02:57:41.109Z,9.22
2023-04-17T03:00:12.704Z,9.12
2023-04-17T03:02:40.419Z,9.09
2023-04-17T03:05:09.168Z,9.12
2023-04-17T03:07:36.549Z,9.04
2023-04-17T03:10:06.453Z,8.95
2023-04-17T03:12:33.851Z,9.11
2023-04-17T03:15:01.290Z,9.12
2023-04-17T03:17:28.827Z,9.27
2023-04-17T03:19:56.231Z,8.95
2023-04-17T03:22:23.620Z,9.05
2023-04-17T03:24:51.011Z,9.16
2023-04-17T03:27:24.240Z,9.25
2023-04-17T03:29:51.909Z,9.32
2023-04-17T03:32:19.417Z,9.08
2023-04-17T03:34:47.165Z,9.11
2023-04-17T03:37:14.509Z,9.17
2023-04-17T03:39:41.889Z,9.26
2023-04-17T03:42:12.043Z,9.20
2023-04-17T03:44:40.851Z,9.25
2023-04-17T03:47:08.220Z,9.32
2023-04-17T03:49:35.734Z,9.07
2023-04-17T03:52:04.330Z,9.24
2023-04-17T03:54:35.325Z,9.17
2023-04-17T03:57:03.574Z,9.27
2023-04-17T03:59:31.510Z,9.10
2023-04-17T04:02:00.609Z,9.15
2023-04-17T04:04:28.249Z,9.09
2023-04-17T04:06:57.598Z,9.18
2023-04-17T04:09:26.099Z,9.16
2023-04-17T04:11:53.476Z,9.16
2023-04-17T04:14:20.873Z,9.32
2023-04-17T04:16:48.223Z,9.30
2023-04-17T04:19:17.100Z,9.14
2023-04-17T04:21:45.126Z,9.24
2023-04-17T04:24:13.315Z,9.04
2023-04-17T04:26:41.857Z,9.11
2023-04-17T04:29:11.778Z,9.06
2023-04-17T04:31:39.546Z,9.04
2023-04-17T04:34:07.840Z,9.09
2023-04-17T04:36:41.747Z,9.21
2023-04-17T04:39:09.918Z,9.24
2023-04-17T04:41:38.125Z,9.26
2023-04-17T04:44:05.906Z,9.26
2023-04-17T04:46:33.288Z,9.13
2023-04-17T04:49:00.733Z,8.99
2023-04-17T04:51:28.272Z,8.87
2023-04-17T04:53:56.982Z,9.04
2023-04-17T04:56:24.365Z,9.14
2023-04-17T04:58:51.734Z,9.04
2023-04-17T05:01:19.243Z,8.95
2023-04-17T05:03:46.918Z,9.06
2023-04-17T05:06:14.617Z,9.11
2023-04-17T05:08:42.126Z,9.09
2023-04-17T05:11:10.839Z,9.18
2023-04-17T05:13:38.255Z,8.96
2023-04-17T05:16:06.389Z,9.01
2023-04-17T05:18:33.841Z,9.15
2023-04-17T05:21:01.530Z,9.24
2023-04-17T05:23:28.992Z,9.32
2023-04-17T05:25:56.339Z,9.18
2023-04-17T05:28:27.141Z,9.29
2023-04-17T05:30:54.572Z,9.32
2023-04-17T05:33:21.975Z,9.28
2023-04-17T05:35:49.476Z,9.33
2023-04-17T05:38:17.096Z,9.21
2023-04-17T05:40:44.705Z,9.23
2023-04-17T05:43:13.171Z,9.47
2023-04-17T05:45:42.384Z,9.48
2023-04-17T05:48:09.826Z,9.18
2023-04-17T05:50:38.097Z,9.06
2023-04-17T05:53:05.726Z,9.01
2023-04-17T05:55:33.294Z,9.28
2023-04-17T05:58:10.472Z,9.46
2023-04-17T06:00:51.728Z,9.38
2023-04-17T06:03:19.693Z,9.45
2023-04-17T06:05:48.253Z,9.14
2023-04-17T06:08:16.281Z,9.17
2023-04-17T06:10:45.640Z,9.22
2023-04-17T06:13:13.406Z,8.94
2023-04-17T06:15:40.825Z,9.28
2023-04-17T06:18:09.881Z,9.19
2023-04-17T06:20:40.039Z,9.41
2023-04-17T06:23:07.625Z,9.55
2023-04-17T06:25:35.060Z,9.31
2023-04-17T06:28:02.547Z,9.19
2023-04-17T06:30:30.046Z,9.40
2023-04-17T06:32:57.537Z,9.43
2023-04-17T06:35:26.275Z,9.61
2023-04-17T06:37:53.705Z,9.37
2023-04-17T06:40:21.136Z,9.32
2023-04-17T06:42:48.574Z,9.26
2023-04-17T06:45:16.150Z,9.32
2023-04-17T06:47:46.597Z,9.60
2023-04-17T06:50:14.060Z,9.16
2023-04-17T06:52:42.775Z,9.32
2023-04-17T06:55:10.926Z,9.29
2023-04-17T06:57:39.052Z,9.60
2023-04-17T07:00:08.006Z,9.36
2023-04-17T07:02:35.675Z,9.44
2023-04-17T07:05:07.070Z,9.49
2023-04-17T07:07:35.962Z,9.47
2023-04-17T07:10:05.446Z,9.48
2023-04-17T07:12:32.918Z,9.72
2023-04-17T07:15:00.763Z,9.67
2023-04-17T07:17:28.300Z,9.76
2023-04-17T07:19:55.691Z,9.58
2023-04-17T07:22:24.015Z,9.48
2023-04-17T07:24:52.751Z,9.35
2023-04-17T07:27:21.856Z,9.48
2023-04-17T07:29:54.404Z,9.43
2023-04-17T07:32:24.142Z,9.44
2023-04-17T07:34:51.628Z,9.92
2023-04-17T07:37:19.049Z,9.85
2023-04-17T07:39:49.543Z,9.87
2023-04-17T07:42:16.941Z,10.00
2023-04-17T07:44:47.252Z,10.10
2023-04-17T07:47:14.717Z,10.13
2023-04-17T07:49:46.278Z,9.72
2023-04-17T07:52:15.168Z,9.52
2023-04-17T07:54:42.612Z,9.48
2023-04-17T07:57:10.094Z,9.46
2023-04-17T07:59:37.820Z,9.30
2023-04-17T08:02:06.972Z,9.56
2023-04-17T08:04:34.840Z,9.69
2023-04-17T08:07:02.814Z,9.90
2023-04-17T08:09:30.493Z,10.28
2023-04-17T08:11:58.318Z,10.02
2023-04-17T08:14:26.074Z,9.34
2023-04-17T08:16:53.498Z,9.29
2023-04-17T08:19:22.287Z,9.88
2023-04-17T08:21:50.768Z,9.36
2023-04-17T08:24:19.875Z,10.11
2023-04-17T08:26:47.607Z,10.04
2023-04-17T08:29:15.322Z,10.24
2023-04-17T08:31:43.057Z,10.15
2023-04-17T08:34:15.047Z,9.82
2023-04-17T08:36:44.521Z,9.58
2023-04-17T08:39:12.565Z,10.19
2023-04-17T08:41:45.180Z,10.01
2023-04-17T08:44:12.720Z,10.21
2023-04-17T08:46:40.634Z,9.71
2023-04-17T08:49:08.160Z,10.38
2023-04-17T08:51:35.834Z,10.73
2023-04-17T08:54:04.749Z,10.09
2023-04-17T08:56:32.150Z,10.56
2023-04-17T08:58:59.538Z,10.85
2023-04-17T09:01:29.754Z,10.82
2023-04-17T09:03:57.939Z,10.58
2023-04-17T09:06:25.533Z,10.62
2023-04-17T09:08:58.210Z,10.63
2023-04-17T09:11:27.811Z,10.64
2023-04-17T09:13:55.679Z,9.92
2023-04-17T09:16:25.889Z,10.14
2023-04-17T09:19:06.454Z,10.04
2023-04-17T09:21:33.845Z,10.64
2023-04-17T09:24:01.294Z,10.17
2023-04-17T09:26:33.304Z,10.73
2023-04-17T09:29:09.044Z,11.20
2023-04-17T09:31:39.052Z,10.88
2023-04-17T09:34:08.441Z,11.13
2023-04-17T09:36:37.783Z,11.35
2023-04-17T09:39:17.037Z,11.14
2023-04-17T09:41:45.937Z,11.43
2023-04-17T09:44:25.629Z,11.61
2023-04-17T09:46:54.003Z,11.22
2023-04-17T09:49:27.061Z,10.74
2023-04-17T09:51:55.030Z,10.80
2023-04-17T09:54:23.891Z,10.82
2023-04-17T09:56:55.672Z,11.15
2023-04-17T09:59:24.864Z,10.11
2023-04-17T10:01:54.055Z,10.84
2023-04-17T10:04:22.249Z,11.58
2023-04-17T10:06:50.569Z,11.66
2023-04-17T10:09:17.999Z,11.91
2023-04-17T10:11:48.071Z,11.73
2023-04-17T10:14:24.546Z,11.76
2023-04-17T10:16:52.187Z,12.09
2023-04-17T10:19:31.073Z,11.26
2023-04-17T10:22:29.890Z,10.90
2023-04-17T10:25:19.329Z,10.48
2023-04-17T10:27:55.146Z,10.30
2023-04-17T10:30:24.292Z,10.24
2023-04-17T10:33:20.458Z,10.41
2023-04-17T10:35:47.989Z,10.28
2023-04-17T10:38:16.147Z,11.25
2023-04-17T10:40:45.277Z,11.40
2023-04-17T10:43:14.323Z,11.45
2023-04-17T10:46:02.957Z,11.64
2023-04-17T10:48:34.720Z,11.32
2023-04-17T10:51:02.947Z,11.64
2023-04-17T10:53:39.005Z,11.65
2023-04-17T10:56:06.828Z,11.78
2023-04-17T10:58:37.925Z,11.92
2023-04-17T11:01:11.278Z,11.90
2023-04-17T11:03:39.695Z,11.83
2023-04-17T11:06:08.602Z,11.23
2023-04-17T11:08:35.980Z,10.79
2023-04-17T11:11:03.415Z,11.34
2023-04-17T11:13:34.872Z,11.31
2023-04-17T11:16:04.655Z,10.85
2023-04-17T11:18:33.486Z,10.38
2023-04-17T11:21:02.097Z,10.24
2023-04-17T11:23:33.382Z,9.82
2023-04-17T11:26:01.309Z,9.82
2023-04-17T11:28:29.650Z,9.63
2023-04-17T11:30:57.188Z,9.57
2023-04-17T11:33:24.726Z,10.13
2023-04-17T11:35:55.331Z,10.28
2023-04-17T11:38:24.068Z,9.85
2023-04-17T11:40:52.617Z,9.82
2023-04-17T11:43:20.970Z,10.25
2023-04-17T11:45:50.888Z,10.11
2023-04-17T11:48:22.548Z,10.17
2023-04-17T11:50:50.346Z,10.52
2023-04-17T11:53:19.130Z,10.82
2023-04-17T11:55:47.411Z,11.32
2023-04-17T11:58:15.351Z,11.61
2023-04-17T12:00:43.516Z,11.23
2023-04-17T12:03:34.387Z,12.07
2023-04-17T12:06:03.210Z,10.89
2023-04-17T12:08:32.334Z,10.55
2023-04-17T12:10:59.778Z,10.90
2023-04-17T12:13:27.160Z,11.12
2023-04-17T12:15:54.631Z,11.35
2023-04-17T12:18:22.132Z,10.80
2023-04-17T12:20:49.573Z,10.81
2023-04-17T12:23:16.969Z,10.82
2023-04-17T12:25:46.141Z,10.86
2023-04-17T12:28:13.516Z,10.43
2023-04-17T12:30:42.594Z,9.91
2023-04-17T12:33:09.969Z,10.39
2023-04-17T12:35:37.611Z,10.14
2023-04-17T12:38:05.017Z,9.79
2023-04-17T12:40:33.006Z,10.13
2023-04-17T12:43:01.781Z,9.98
2023-04-17T12:45:29.492Z,10.23
2023-04-17T12:47:57.176Z,10.72
2023-04-17T12:50:24.741Z,10.88
2023-04-17T12:52:52.133Z,10.71
2023-04-17T12:55:19.678Z,10.27
2023-04-17T12:57:47.089Z,10.58
2023-04-17T13:00:17.241Z,10.03
2023-04-17T13:02:44.782Z,10.43
2023-04-17T13:05:12.288Z,10.79
2023-04-17T13:07:39.693Z,11.13
2023-04-17T13:10:08.211Z,11.21
2023-04-17T13:12:35.606Z,11.12
2023-04-17T13:15:03.088Z,10.68
2023-04-17T13:17:32.106Z,10.10
2023-04-17T13:19:59.547Z,9.86
2023-04-17T13:22:26.929Z,10.02
2023-04-17T13:24:54.320Z,10.13
2023-04-17T13:27:21.743Z,10.48
2023-04-17T13:29:49.134Z,10.34
2023-04-17T13:32:16.526Z,10.36
2023-04-17T13:34:45.240Z,10.55
2023-04-17T13:37:14.490Z,10.48
2023-04-17T13:39:42.152Z,10.24
2023-04-17T13:42:10.117Z,10.09
2023-04-17T13:44:37.525Z,10.13
2023-04-17T13:47:07.736Z,9.97
2023-04-17T13:49:35.398Z,9.69
2023-04-17T13:52:04.245Z,9.91
2023-04-17T13:54:31.707Z,10.09
2023-04-17T13:56:59.348Z,10.21
2023-04-17T13:59:26.742Z,10.30
2023-04-17T14:01:54.330Z,10.34
2023-04-17T14:04:22.082Z,10.29
2023-04-17T14:06:51.396Z,10.38
2023-04-17T14:09:20.241Z,10.16
2023-04-17T14:11:47.609Z,10.05
2023-04-17T14:14:15.265Z,9.93
2023-04-17T14:16:43.271Z,9.87
2023-04-17T14:19:14.517Z,9.67
2023-04-17T14:21:42.822Z,9.51
2023-04-17T14:24:10.492Z,9.28
2023-04-17T14:26:39.667Z,9.12
2023-04-17T14:29:07.535Z,9.44
2023-04-17T14:31:34.982Z,9.67
2023-04-17T14:34:02.375Z,9.98
2023-04-17T14:36:29.788Z,9.83
2023-04-17T14:38:57.191Z,10.15
2023-04-17T14:41:29.676Z,10.17
2023-04-17T14:43:58.424Z,10.43
2023-04-17T14:46:26.199Z,10.65
2023-04-17T14:48:56.126Z,9.93
2023-04-17T14:51:24.669Z,9.86
2023-04-17T14:53:53.156Z,10.03
2023-04-17T14:56:21.353Z,10.35
2023-04-17T14:58:48.790Z,10.19
2023-04-17T15:01:17.693Z,10.17
2023-04-17T15:03:48.201Z,10.51
2023-04-17T15:06:16.687Z,10.47
2023-04-17T15:08:45.963Z,10.31
2023-04-17T15:11:13.343Z,10.48
2023-04-17T15:13:40.881Z,10.35
2023-04-17T15:16:10.330Z,10.07
2023-04-17T15:18:39.641Z,10.12
2023-04-17T15:21:07.770Z,10.17
2023-04-17T15:23:35.509Z,10.09
2023-04-17T15:26:03.273Z,10.11
2023-04-17T15:28:30.685Z,9.92
2023-04-17T15:30:58.095Z,9.78
2023-04-17T15:33:25.488Z,9.62
2023-04-17T15:35:59.768Z,9.56
2023-04-17T15:38:28.582Z,9.73
2023-04-17T15:40:57.328Z,9.39
2023-04-17T15:43:26.173Z,9.51
2023-04-17T15:45:55.262Z,9.53
2023-04-17T15:48:23.669Z,9.63
2023-04-17T15:50:53.124Z,9.59
2023-04-17T15:53:22.991Z,9.26
2023-04-17T15:55:51.306Z,9.61
2023-04-17T15:58:27.366Z,9.67
2023-04-17T16:00:55.954Z,10.19
2023-04-17T16:03:24.606Z,9.47
2023-04-17T16:06:04.504Z,9.70
2023-04-17T16:08:34.845Z,10.09
2023-04-17T16:11:03.117Z,10.13
2023-04-17T16:13:31.781Z,10.22
2023-04-17T16:16:02.797Z,9.63
2023-04-17T16:21:22.143Z,9.72
2023-04-17T16:23:53.321Z,9.97
2023-04-17T16:26:30.621Z,9.75
2023-04-17T16:29:07.451Z,9.61
2023-04-17T16:31:37.814Z,10.00
2023-04-17T16:34:08.845Z,9.86
2023-04-17T16:36:45.356Z,9.97
2023-04-17T16:39:15.587Z,10.17
2023-04-17T16:41:47.067Z,10.31
2023-04-17T16:44:14.659Z,9.45
2023-04-17T16:47:09.613Z,9.43
2023-04-17T16:49:33.000Z,8.81
2023-04-17T16:52:00.583Z,9.11
2023-04-17T16:54:29.278Z,9.29
2023-04-17T16:56:57.030Z,9.23
2023-04-17T16:59:24.467Z,9.59
2023-04-17T17:01:52.545Z,8.92
2023-04-17T17:04:23.013Z,8.41
2023-04-17T17:06:50.659Z,8.69
2023-04-17T17:09:18.957Z,8.40
2023-04-17T17:11:47.675Z,8.94
2023-04-17T17:14:16.062Z,8.90
2023-04-17T17:16:43.532Z,8.76
2023-04-17T17:19:11.168Z,8.69
2023-04-17T17:21:38.794Z,8.71
2023-04-17T17:24:06.785Z,8.81
2023-04-17T17:26:34.456Z,8.46
2023-04-17T17:29:03.244Z,8.66
2023-04-17T17:31:30.718Z,8.72
2023-04-17T17:34:11.972Z,8.54
2023-04-17T17:36:52.601Z,8.40
2023-04-17T17:39:21.541Z,8.77
2023-04-17T17:41:48.970Z,8.81
2023-04-17T17:44:17.763Z,8.57
2023-04-17T17:46:45.306Z,8.56
2023-04-17T17:49:13.007Z,8.50
2023-04-17T17:51:41.738Z,8.60
2023-04-17T17:54:09.282Z,8.80
2023-04-17T17:56:36.681Z,9.14
2023-04-17T17:59:04.079Z,8.58
2023-04-17T18:01:33.177Z,8.59
2023-04-17T18:04:00.823Z,8.86
2023-04-17T18:06:28.466Z,9.14
2023-04-17T18:08:55.949Z,9.17
2023-04-17T18:11:24.675Z,9.36
2023-04-17T18:13:52.154Z,9.36
2023-04-17T18:16:19.650Z,9.15
2023-04-17T18:18:48.393Z,9.17
2023-04-17T18:21:15.797Z,9.27
2023-04-17T18:23:43.390Z,9.36
2023-04-17T18:26:14.611Z,9.45
2023-04-17T18:28:42.762Z,9.27
2023-04-17T18:31:12.676Z,9.37
2023-04-17T18:33:40.130Z,9.42
2023-04-17T18:36:09.527Z,8.75
2023-04-17T18:38:36.944Z,8.84
2023-04-17T18:41:04.452Z,8.90
2023-04-17T18:43:31.805Z,8.70
2023-04-17T18:45:59.194Z,8.60
2023-04-17T18:48:26.726Z,8.42
2023-04-17T18:50:54.095Z,8.60
2023-04-17T18:53:22.785Z,8.66
2023-04-17T18:55:53.626Z,8.72
2023-04-17T18:58:24.599Z,8.53
2023-04-17T19:00:51.960Z,8.31
2023-04-17T19:03:19.378Z,8.73
2023-04-17T19:05:48.626Z,8.43
2023-04-17T19:08:16.046Z,8.60
2023-04-17T19:10:46.598Z,8.66
2023-04-17T19:13:13.979Z,8.91
2023-04-17T19:15:41.353Z,9.05
2023-04-17T19:18:09.531Z,9.19
2023-04-17T19:20:37.169Z,8.85
2023-04-17T19:23:04.733Z,8.98
2023-04-17T19:25:35.591Z,9.12
2023-04-17T19:28:04.490Z,9.28
2023-04-17T19:30:31.994Z,9.22
2023-04-17T19:32:59.515Z,8.95
2023-04-17T19:35:27.077Z,9.03
2023-04-17T19:37:54.438Z,9.05
2023-04-17T19:40:25.512Z,8.27
2023-04-17T19:42:53.422Z,8.03
2023-04-17T19:45:22.124Z,8.08
2023-04-17T19:47:54.996Z,8.32
2023-04-17T19:50:23.109Z,8.36
2023-04-17T19:52:51.054Z,8.20
2023-04-17T19:55:18.775Z,8.03
2023-04-17T19:57:46.228Z,8.15
2023-04-17T20:00:14.613Z,7.82
2023-04-17T20:02:43.447Z,7.96
2023-04-17T20:05:11.353Z,8.07
2023-04-17T20:07:38.815Z,8.33
2023-04-17T20:10:07.438Z,8.40
2023-04-17T20:12:34.849Z,8.26
2023-04-17T20:15:02.278Z,8.23
2023-04-17T20:17:29.659Z,8.38
2023-04-17T20:19:58.385Z,8.52
2023-04-17T20:22:25.804Z,8.58
2023-04-17T20:24:53.163Z,8.37
2023-04-17T20:27:20.509Z,8.43
2023-04-17T20:29:47.913Z,8.23
2023-04-17T20:32:15.310Z,7.81
2023-04-17T20:34:42.703Z,8.07
2023-04-17T20:37:11.418Z,8.21
2023-04-17T20:39:40.758Z,7.80
2023-04-17T20:42:08.170Z,8.05
2023-04-17T20:44:35.801Z,7.99
2023-04-17T20:47:03.950Z,7.82
2023-04-17T20:49:33.760Z,7.89
2023-04-17T20:52:02.052Z,7.85
2023-04-17T20:54:30.894Z,8.05
2023-04-17T20:56:58.363Z,8.28
2023-04-17T20:59:25.931Z,8.22
2023-04-17T21:01:53.537Z,8.32
2023-04-17T21:04:21.701Z,8.16
2023-04-17T21:06:49.209Z,8.30
2023-04-17T21:09:16.792Z,8.33
2023-04-17T21:11:45.800Z,8.21
2023-04-17T21:14:15.232Z,8.16
2023-04-17T21:16:44.367Z,8.07
2023-04-17T21:19:11.768Z,8.02
2023-04-17T21:21:39.233Z,7.76
2023-04-17T21:24:07.019Z,7.87
2023-04-17T21:26:34.471Z,7.84
2023-04-17T21:29:03.123Z,8.00
2023-04-17T21:31:30.758Z,8.01
2023-04-17T21:33:58.175Z,8.18
2023-04-17T21:36:26.894Z,8.22
2023-04-17T21:38:54.307Z,8.16
2023-04-17T21:41:21.674Z,8.00
2023-04-17T21:43:49.024Z,7.93
2023-04-17T21:46:17.828Z,7.88
2023-04-17T21:48:45.314Z,7.92
2023-04-17T21:51:12.673Z,7.70
2023-04-17T21:53:40.119Z,7.86
2023-04-17T21:56:09.074Z,8.01
2023-04-17T21:58:36.461Z,7.85
2023-04-17T22:01:04.216Z,8.14
2023-04-17T22:03:33.081Z,8.14
2023-04-17T22:06:01.023Z,8.15
2023-04-17T22:08:28.375Z,8.13
2023-04-17T22:10:55.762Z,8.28
2023-04-17T22:13:23.120Z,8.33
2023-04-17T22:15:50.480Z,8.15
2023-04-17T22:18:17.896Z,8.04
2023-04-17T22:20:46.726Z,8.06
2023-04-17T22:23:14.073Z,8.18
2023-04-17T22:25:41.457Z,8.40
2023-04-17T22:28:08.828Z,7.76
2023-04-17T22:30:36.251Z,7.90
2023-04-17T22:33:03.667Z,7.85
2023-04-17T22:35:31.273Z,7.99
2023-04-17T22:38:00.003Z,7.96
2023-04-17T22:40:27.476Z,7.91
2023-04-17T22:42:54.823Z,8.02
2023-04-17T22:45:22.194Z,8.26
2023-04-17T22:47:49.727Z,7.96
2023-04-17T22:50:17.665Z,8.01
2023-04-17T22:52:45.258Z,7.92
2023-04-17T22:55:14.028Z,8.05
2023-04-17T22:57:41.566Z,8.06
2023-04-17T23:00:10.228Z,8.04
2023-04-17T23:02:37.804Z,7.99
2023-04-17T23:05:06.296Z,8.01
2023-04-17T23:07:33.752Z,7.94
2023-04-17T23:10:01.345Z,7.89
2023-04-17T23:12:30.022Z,7.90
2023-04-17T23:14:58.562Z,7.85
2023-04-17T23:17:25.973Z,8.02
2023-04-17T23:19:53.997Z,8.08
2023-04-17T23:22:21.414Z,8.25
2023-04-17T23:24:48.851Z,8.12
2023-04-17T23:27:16.263Z,8.13
2023-04-17T23:29:44.957Z,8.17
2023-04-17T23:32:12.324Z,8.32
2023-04-17T23:34:39.677Z,8.31
2023-04-17T23:37:07.418Z,8.19
2023-04-17T23:39:35.619Z,8.18
2023-04-17T23:42:06.981Z,8.39
2023-04-17T23:44:34.618Z,8.59
2023-04-17T23:47:04.371Z,8.42
2023-04-17T23:49:31.865Z,8.48
2023-04-17T23:51:59.242Z,8.30
2023-04-17T23:54:26.607Z,8.32
2023-04-17T23:56:54.014Z,8.23
2023-04-17T23:59:21.396Z,8.25
